createdAt,value
2022-12-05T00:00:00.114Z,489.00
2022-12-05T00:00:30.189Z,488.00
2022-12-05T00:01:00.299Z,488.00
2022-12-05T00:01:30.363Z,487.00
2022-12-05T00:02:00.526Z,487.00
2022-12-05T00:02:30.618Z,488.00
2022-12-05T00:03:00.585Z,489.00
2022-12-05T00:03:30.674Z,491.00
2022-12-05T00:04:00.824Z,491.00
2022-12-05T00:04:30.918Z,490.00
2022-12-05T00:05:00.897Z,488.00
2022-12-05T00:05:30.982Z,488.00
2022-12-05T00:06:01.061Z,489.00
2022-12-05T00:06:31.151Z,488.00
2022-12-05T00:07:01.239Z,488.00
2022-12-05T00:07:31.358Z,488.00
2022-12-05T00:08:01.440Z,489.00
2022-12-05T00:08:31.319Z,486.00
2022-12-05T00:09:01.408Z,485.00
2022-12-05T00:09:31.496Z,485.00
2022-12-05T00:10:01.582Z,484.00
2022-12-05T00:10:31.659Z,486.00
2022-12-05T00:11:01.740Z,485.00
2022-12-05T00:11:31.828Z,485.00
2022-12-05T00:12:01.916Z,484.00
2022-12-05T00:12:31.988Z,484.00
2022-12-05T00:13:02.066Z,485.00
2022-12-05T00:13:32.144Z,487.00
2022-12-05T00:14:02.232Z,487.00
2022-12-05T00:14:32.319Z,486.00
2022-12-05T00:15:02.396Z,487.00
2022-12-05T00:15:32.485Z,487.00
2022-12-05T00:16:02.595Z,487.00
2022-12-05T00:16:32.776Z,488.00
2022-12-05T00:17:02.788Z,487.00
2022-12-05T00:17:32.671Z,486.00
2022-12-05T00:18:02.754Z,488.00
2022-12-05T00:18:32.831Z,487.00
2022-12-05T00:19:02.917Z,487.00
2022-12-05T00:19:32.992Z,486.00
2022-12-05T00:20:03.263Z,486.00
2022-12-05T00:20:33.122Z,488.00
2022-12-05T00:21:03.176Z,487.00
2022-12-05T00:21:33.257Z,486.00
2022-12-05T00:22:03.343Z,487.00
2022-12-05T00:22:33.441Z,488.00
2022-12-05T00:23:03.529Z,488.00
2022-12-05T00:23:33.627Z,487.00
2022-12-05T00:24:03.705Z,485.00
2022-12-05T00:24:33.786Z,485.00
2022-12-05T00:25:03.868Z,487.00
2022-12-05T00:25:33.953Z,486.00
2022-12-05T00:26:04.031Z,486.00
2022-12-05T00:26:34.108Z,486.00
2022-12-05T00:27:04.199Z,486.00
2022-12-05T00:27:34.288Z,487.00
2022-12-05T00:28:04.371Z,487.00
2022-12-05T00:28:34.463Z,488.00
2022-12-05T00:29:04.545Z,485.00
2022-12-05T00:29:34.632Z,487.00
2022-12-05T00:30:04.715Z,487.00
2022-12-05T00:30:34.793Z,487.00
2022-12-05T00:31:04.869Z,485.00
2022-12-05T00:31:35.059Z,484.00
2022-12-05T00:32:05.107Z,484.00
2022-12-05T00:32:35.065Z,483.00
2022-12-05T00:33:05.151Z,485.00
2022-12-05T00:33:35.247Z,485.00
2022-12-05T00:34:05.328Z,486.00
2022-12-05T00:34:35.407Z,487.00
2022-12-05T00:35:05.486Z,487.00
2022-12-05T00:35:35.562Z,489.00
2022-12-05T00:36:05.646Z,489.00
2022-12-05T00:36:35.738Z,487.00
2022-12-05T00:37:05.819Z,489.00
2022-12-05T00:37:35.897Z,488.00
2022-12-05T00:38:05.982Z,488.00
2022-12-05T00:38:36.077Z,487.00
2022-12-05T00:39:06.155Z,486.00
2022-12-05T00:39:36.229Z,487.00
2022-12-05T00:40:06.341Z,486.00
2022-12-05T00:40:36.424Z,486.00
2022-12-05T00:41:06.514Z,487.00
2022-12-05T00:41:36.580Z,488.00
2022-12-05T00:42:06.660Z,488.00
2022-12-05T00:42:36.741Z,489.00
2022-12-05T00:43:06.828Z,487.00
2022-12-05T00:43:36.921Z,488.00
2022-12-05T00:44:07.028Z,486.00
2022-12-05T00:44:37.052Z,486.00
2022-12-05T00:45:07.148Z,484.00
2022-12-05T00:45:37.225Z,487.00
2022-12-05T00:46:07.396Z,487.00
2022-12-05T00:46:37.470Z,489.00
2022-12-05T00:47:07.411Z,488.00
2022-12-05T00:47:37.451Z,490.00
2022-12-05T00:48:07.487Z,488.00
2022-12-05T00:48:37.522Z,489.00
2022-12-05T00:49:07.558Z,489.00
2022-12-05T00:49:37.604Z,489.00
2022-12-05T00:50:07.654Z,487.00
2022-12-05T00:50:37.676Z,486.00
2022-12-05T00:51:07.717Z,487.00
2022-12-05T00:51:37.776Z,487.00
2022-12-05T00:52:07.819Z,487.00
2022-12-05T00:52:37.851Z,488.00
2022-12-05T00:53:07.907Z,487.00
2022-12-05T00:53:37.927Z,486.00
2022-12-05T00:54:07.972Z,488.00
2022-12-05T00:54:38.012Z,489.00
2022-12-05T00:55:08.064Z,489.00
2022-12-05T00:55:38.135Z,491.00
2022-12-05T00:56:08.215Z,490.00
2022-12-05T00:56:38.303Z,488.00
2022-12-05T00:57:08.388Z,487.00
2022-12-05T00:57:38.463Z,487.00
2022-12-05T00:58:08.542Z,487.00
2022-12-05T00:58:38.630Z,485.00
2022-12-05T00:59:08.712Z,486.00
2022-12-05T00:59:38.793Z,486.00
2022-12-05T01:00:08.880Z,487.00
2022-12-05T01:00:38.954Z,487.00
2022-12-05T01:01:09.136Z,486.00
2022-12-05T01:01:39.293Z,485.00
2022-12-05T01:02:09.173Z,483.00
2022-12-05T01:02:39.298Z,484.00
2022-12-05T01:03:09.319Z,485.00
2022-12-05T01:03:39.347Z,485.00
2022-12-05T01:04:09.327Z,485.00
2022-12-05T01:04:39.407Z,486.00
2022-12-05T01:05:09.495Z,485.00
2022-12-05T01:05:39.571Z,483.00
2022-12-05T01:06:09.648Z,484.00
2022-12-05T01:06:39.731Z,484.00
2022-12-05T01:07:09.814Z,485.00
2022-12-05T01:07:39.959Z,486.00
2022-12-05T01:08:10.058Z,486.00
2022-12-05T01:08:39.935Z,489.00
2022-12-05T01:09:10.051Z,489.00
2022-12-05T01:09:40.107Z,490.00
2022-12-05T01:10:10.200Z,489.00
2022-12-05T01:10:40.283Z,488.00
2022-12-05T01:11:10.370Z,488.00
2022-12-05T01:11:41.581Z,488.00
2022-12-05T01:12:10.459Z,487.00
2022-12-05T01:12:40.541Z,488.00
2022-12-05T01:13:10.627Z,486.00
2022-12-05T01:13:40.708Z,487.00
2022-12-05T01:14:10.794Z,487.00
2022-12-05T01:14:40.864Z,486.00
2022-12-05T01:15:10.948Z,487.00
2022-12-05T01:15:41.033Z,487.00
2022-12-05T01:16:11.204Z,486.00
2022-12-05T01:16:41.400Z,485.00
2022-12-05T01:17:11.333Z,486.00
2022-12-05T01:17:41.309Z,486.00
2022-12-05T01:18:11.399Z,486.00
2022-12-05T01:18:41.485Z,487.00
2022-12-05T01:19:11.632Z,486.00
2022-12-05T01:19:41.593Z,486.00
2022-12-05T01:20:11.707Z,486.00
2022-12-05T01:20:41.782Z,485.00
2022-12-05T01:21:11.875Z,484.00
2022-12-05T01:21:41.941Z,485.00
2022-12-05T01:22:12.022Z,486.00
2022-12-05T01:22:42.106Z,486.00
2022-12-05T01:23:12.191Z,486.00
2022-12-05T01:23:42.269Z,489.00
2022-12-05T01:24:12.346Z,489.00
2022-12-05T01:24:42.426Z,490.00
2022-12-05T01:25:12.508Z,491.00
2022-12-05T01:25:42.587Z,493.00
2022-12-05T01:26:12.686Z,493.00
2022-12-05T01:26:42.749Z,491.00
2022-12-05T01:27:12.839Z,491.00
2022-12-05T01:27:42.914Z,493.00
2022-12-05T01:28:13.005Z,492.00
2022-12-05T01:28:43.218Z,493.00
2022-12-05T01:29:13.254Z,493.00
2022-12-05T01:29:43.243Z,491.00
2022-12-05T01:30:13.335Z,489.00
2022-12-05T01:30:43.413Z,488.00
2022-12-05T01:31:13.489Z,489.00
2022-12-05T01:31:43.688Z,489.00
2022-12-05T01:32:13.742Z,488.00
2022-12-05T01:32:43.675Z,488.00
2022-12-05T01:33:13.752Z,488.00
2022-12-05T01:33:43.832Z,489.00
2022-12-05T01:34:13.917Z,490.00
2022-12-05T01:34:43.999Z,490.00
2022-12-05T01:35:14.094Z,490.00
2022-12-05T01:35:44.164Z,490.00
2022-12-05T01:36:14.252Z,489.00
2022-12-05T01:36:44.344Z,489.00
2022-12-05T01:37:14.419Z,489.00
2022-12-05T01:37:44.496Z,487.00
2022-12-05T01:38:14.584Z,485.00
2022-12-05T01:38:44.666Z,486.00
2022-12-05T01:39:14.758Z,486.00
2022-12-05T01:39:44.832Z,484.00
2022-12-05T01:40:14.915Z,486.00
2022-12-05T01:40:44.988Z,485.00
2022-12-05T01:41:15.072Z,485.00
2022-12-05T01:41:45.152Z,483.00
2022-12-05T01:42:15.234Z,481.00
2022-12-05T01:42:45.319Z,481.00
2022-12-05T01:43:15.412Z,482.00
2022-12-05T01:43:45.496Z,481.00
2022-12-05T01:44:15.576Z,481.00
2022-12-05T01:44:45.654Z,481.00
2022-12-05T01:45:15.748Z,484.00
2022-12-05T01:45:45.864Z,485.00
2022-12-05T01:46:15.897Z,486.00
2022-12-05T01:46:45.947Z,487.00
2022-12-05T01:47:15.954Z,486.00
2022-12-05T01:47:45.991Z,488.00
2022-12-05T01:48:16.031Z,489.00
2022-12-05T01:48:46.079Z,488.00
2022-12-05T01:49:16.114Z,488.00
2022-12-05T01:49:46.148Z,486.00
2022-12-05T01:50:16.217Z,484.00
2022-12-05T01:50:46.266Z,481.00
2022-12-05T01:51:16.296Z,482.00
2022-12-05T01:51:46.334Z,483.00
2022-12-05T01:52:16.371Z,483.00
2022-12-05T01:52:46.409Z,483.00
2022-12-05T01:53:16.457Z,482.00
2022-12-05T01:53:46.485Z,480.00
2022-12-05T01:54:16.524Z,480.00
2022-12-05T01:54:46.551Z,481.00
2022-12-05T01:55:16.628Z,483.00
2022-12-05T01:55:46.717Z,486.00
2022-12-05T01:56:16.796Z,485.00
2022-12-05T01:56:46.879Z,485.00
2022-12-05T01:57:16.957Z,486.00
2022-12-05T01:57:47.044Z,485.00
2022-12-05T01:58:17.125Z,484.00
2022-12-05T01:58:47.204Z,485.00
2022-12-05T01:59:17.283Z,482.00
2022-12-05T01:59:47.371Z,485.00
2022-12-05T02:00:17.473Z,485.00
2022-12-05T02:00:47.607Z,485.00
2022-12-05T02:01:17.678Z,483.00
2022-12-05T02:01:47.774Z,482.00
2022-12-05T02:02:17.864Z,481.00
2022-12-05T02:02:47.879Z,480.00
2022-12-05T02:03:17.863Z,483.00
2022-12-05T02:03:47.951Z,484.00
2022-12-05T02:04:18.028Z,483.00
2022-12-05T02:04:48.115Z,483.00
2022-12-05T02:05:18.227Z,484.00
2022-12-05T02:05:48.299Z,484.00
2022-12-05T02:06:18.377Z,484.00
2022-12-05T02:06:48.462Z,485.00
2022-12-05T02:07:18.550Z,485.00
2022-12-05T02:07:48.702Z,487.00
2022-12-05T02:08:18.776Z,486.00
2022-12-05T02:08:48.738Z,487.00
2022-12-05T02:09:18.823Z,485.00
2022-12-05T02:09:48.910Z,484.00
2022-12-05T02:10:18.996Z,483.00
2022-12-05T02:10:49.070Z,481.00
2022-12-05T02:11:19.151Z,481.00
2022-12-05T02:11:49.236Z,482.00
2022-12-05T02:12:19.325Z,482.00
2022-12-05T02:12:49.404Z,482.00
2022-12-05T02:13:19.482Z,483.00
2022-12-05T02:13:49.569Z,483.00
2022-12-05T02:14:19.667Z,485.00
2022-12-05T02:14:49.751Z,485.00
2022-12-05T02:15:19.832Z,484.00
2022-12-05T02:15:53.879Z,484.00
2022-12-05T02:16:20.071Z,484.00
2022-12-05T02:16:50.156Z,483.00
2022-12-05T02:17:20.124Z,484.00
2022-12-05T02:17:50.199Z,485.00
2022-12-05T02:18:20.288Z,485.00
2022-12-05T02:18:50.373Z,484.00
2022-12-05T02:19:20.453Z,483.00
2022-12-05T02:19:50.539Z,484.00
2022-12-05T02:20:20.610Z,484.00
2022-12-05T02:20:50.702Z,485.00
2022-12-05T02:21:20.788Z,482.00
2022-12-05T02:21:50.858Z,484.00
2022-12-05T02:22:20.938Z,483.00
2022-12-05T02:22:51.015Z,484.00
2022-12-05T02:23:21.105Z,484.00
2022-12-05T02:23:51.183Z,485.00
2022-12-05T02:24:21.258Z,485.00
2022-12-05T02:24:51.337Z,483.00
2022-12-05T02:25:21.423Z,483.00
2022-12-05T02:25:51.513Z,481.00
2022-12-05T02:26:21.598Z,481.00
2022-12-05T02:26:51.682Z,481.00
2022-12-05T02:27:21.754Z,481.00
2022-12-05T02:27:51.840Z,481.00
2022-12-05T02:28:21.938Z,483.00
2022-12-05T02:28:52.008Z,485.00
2022-12-05T02:29:22.081Z,486.00
2022-12-05T02:29:52.169Z,488.00
2022-12-05T02:30:22.265Z,488.00
2022-12-05T02:30:52.337Z,489.00
2022-12-05T02:31:22.414Z,490.00
2022-12-05T02:31:52.500Z,489.00
2022-12-05T02:32:22.380Z,488.00
2022-12-05T02:32:52.467Z,489.00
2022-12-05T02:33:22.566Z,489.00
2022-12-05T02:33:52.633Z,490.00
2022-12-05T02:34:22.717Z,491.00
2022-12-05T02:34:52.823Z,489.00
2022-12-05T02:35:22.915Z,488.00
2022-12-05T02:35:52.993Z,486.00
2022-12-05T02:36:23.075Z,486.00
2022-12-05T02:36:53.150Z,486.00
2022-12-05T02:37:23.228Z,486.00
2022-12-05T02:37:53.313Z,485.00
2022-12-05T02:38:23.390Z,486.00
2022-12-05T02:38:53.473Z,484.00
2022-12-05T02:39:23.560Z,485.00
2022-12-05T02:39:53.641Z,484.00
2022-12-05T02:40:23.723Z,484.00
2022-12-05T02:40:53.811Z,486.00
2022-12-05T02:41:23.891Z,488.00
2022-12-05T02:41:53.974Z,488.00
2022-12-05T02:42:24.049Z,489.00
2022-12-05T02:42:54.130Z,490.00
2022-12-05T02:43:24.242Z,487.00
2022-12-05T02:43:54.215Z,487.00
2022-12-05T02:44:24.295Z,485.00
2022-12-05T02:44:54.384Z,487.00
2022-12-05T02:45:24.437Z,487.00
2022-12-05T02:45:54.617Z,487.00
2022-12-05T02:46:24.698Z,490.00
2022-12-05T02:46:54.640Z,493.00
2022-12-05T02:47:24.658Z,492.00
2022-12-05T02:47:54.681Z,490.00
2022-12-05T02:48:24.722Z,490.00
2022-12-05T02:48:54.752Z,487.00
2022-12-05T02:49:24.803Z,488.00
2022-12-05T02:49:55.154Z,487.00
2022-12-05T02:50:24.868Z,488.00
2022-12-05T02:50:54.902Z,488.00
2022-12-05T02:51:24.942Z,489.00
2022-12-05T02:51:54.991Z,490.00
2022-12-05T02:52:25.021Z,492.00
2022-12-05T02:52:55.062Z,493.00
2022-12-05T02:53:25.103Z,492.00
2022-12-05T02:53:55.149Z,491.00
2022-12-05T02:54:25.184Z,493.00
2022-12-05T02:54:55.229Z,492.00
2022-12-05T02:55:25.291Z,492.00
2022-12-05T02:55:55.370Z,492.00
2022-12-05T02:56:25.458Z,490.00
2022-12-05T02:56:55.540Z,491.00
2022-12-05T02:57:25.619Z,490.00
2022-12-05T02:57:55.702Z,489.00
2022-12-05T02:58:25.783Z,491.00
2022-12-05T02:58:55.869Z,492.00
2022-12-05T02:59:25.945Z,492.00
2022-12-05T02:59:56.368Z,492.00
2022-12-05T03:00:26.072Z,490.00
2022-12-05T03:00:56.233Z,491.00
2022-12-05T03:01:26.259Z,491.00
2022-12-05T03:01:56.247Z,489.00
2022-12-05T03:02:26.354Z,490.00
2022-12-05T03:02:56.409Z,491.00
2022-12-05T03:03:26.493Z,490.00
2022-12-05T03:03:56.621Z,489.00
2022-12-05T03:04:26.796Z,490.00
2022-12-05T03:04:56.638Z,489.00
2022-12-05T03:05:26.724Z,489.00
2022-12-05T03:05:56.829Z,488.00
2022-12-05T03:06:26.903Z,486.00
2022-12-05T03:06:56.999Z,486.00
2022-12-05T03:07:27.074Z,489.00
2022-12-05T03:07:57.287Z,489.00
2022-12-05T03:08:27.271Z,489.00
2022-12-05T03:08:57.351Z,490.00
2022-12-05T03:09:27.427Z,490.00
2022-12-05T03:09:57.883Z,491.00
2022-12-05T03:10:27.603Z,491.00
2022-12-05T03:10:57.927Z,490.00
2022-12-05T03:11:27.771Z,491.00
2022-12-05T03:11:57.852Z,489.00
2022-12-05T03:12:27.948Z,489.00
2022-12-05T03:12:58.024Z,489.00
2022-12-05T03:13:28.099Z,490.00
2022-12-05T03:13:58.199Z,491.00
2022-12-05T03:14:28.286Z,492.00
2022-12-05T03:14:58.371Z,492.00
2022-12-05T03:15:28.446Z,492.00
2022-12-05T03:15:58.531Z,491.00
2022-12-05T03:16:28.670Z,491.00
2022-12-05T03:16:58.758Z,491.00
2022-12-05T03:17:28.744Z,492.00
2022-12-05T03:17:58.800Z,490.00
2022-12-05T03:18:28.879Z,490.00
2022-12-05T03:18:58.981Z,490.00
2022-12-05T03:19:29.056Z,489.00
2022-12-05T03:19:59.428Z,489.00
2022-12-05T03:20:29.239Z,489.00
2022-12-05T03:20:59.329Z,490.00
2022-12-05T03:21:29.415Z,488.00
2022-12-05T03:21:59.496Z,488.00
2022-12-05T03:22:29.573Z,490.00
2022-12-05T03:22:59.665Z,491.00
2022-12-05T03:23:29.751Z,489.00
2022-12-05T03:23:59.873Z,489.00
2022-12-05T03:24:29.913Z,488.00
2022-12-05T03:24:59.999Z,486.00
2022-12-05T03:25:30.081Z,487.00
2022-12-05T03:26:00.153Z,487.00
2022-12-05T03:26:30.255Z,488.00
2022-12-05T03:27:00.343Z,487.00
2022-12-05T03:27:30.422Z,491.00
2022-12-05T03:28:00.503Z,489.00
2022-12-05T03:28:30.577Z,488.00
2022-12-05T03:29:00.659Z,490.00
2022-12-05T03:29:30.745Z,488.00
2022-12-05T03:30:01.079Z,488.00
2022-12-05T03:30:30.996Z,489.00
2022-12-05T03:31:01.036Z,491.00
2022-12-05T03:31:31.207Z,492.00
2022-12-05T03:32:01.068Z,494.00
2022-12-05T03:32:31.173Z,493.00
2022-12-05T03:33:01.225Z,495.00
2022-12-05T03:33:31.307Z,496.00
2022-12-05T03:34:01.403Z,496.00
2022-12-05T03:34:31.490Z,494.00
2022-12-05T03:35:01.562Z,494.00
2022-12-05T03:35:31.637Z,494.00
2022-12-05T03:36:01.724Z,494.00
2022-12-05T03:36:31.806Z,495.00
2022-12-05T03:37:01.890Z,497.00
2022-12-05T03:37:31.971Z,496.00
2022-12-05T03:38:02.062Z,496.00
2022-12-05T03:38:32.155Z,495.00
2022-12-05T03:39:02.242Z,496.00
2022-12-05T03:39:32.317Z,493.00
2022-12-05T03:40:02.402Z,492.00
2022-12-05T03:40:32.485Z,491.00
2022-12-05T03:41:02.576Z,491.00
2022-12-05T03:41:32.644Z,491.00
2022-12-05T03:42:02.731Z,489.00
2022-12-05T03:42:32.820Z,488.00
2022-12-05T03:43:02.902Z,487.00
2022-12-05T03:43:33.045Z,486.00
2022-12-05T03:44:03.010Z,486.00
2022-12-05T03:44:33.096Z,488.00
2022-12-05T03:45:03.199Z,488.00
2022-12-05T03:45:33.235Z,488.00
2022-12-05T03:46:03.380Z,487.00
2022-12-05T03:46:33.370Z,486.00
2022-12-05T03:47:03.325Z,484.00
2022-12-05T03:47:33.371Z,485.00
2022-12-05T03:48:03.435Z,484.00
2022-12-05T03:48:33.496Z,483.00
2022-12-05T03:49:03.530Z,484.00
2022-12-05T03:49:34.275Z,483.00
2022-12-05T03:50:03.663Z,483.00
2022-12-05T03:50:33.686Z,483.00
2022-12-05T03:51:03.732Z,481.00
2022-12-05T03:51:33.792Z,482.00
2022-12-05T03:52:03.849Z,484.00
2022-12-05T03:52:45.995Z,485.00
2022-12-05T03:53:20.683Z,485.00
2022-12-05T03:53:33.959Z,485.00
2022-12-05T03:54:04.010Z,486.00
2022-12-05T03:54:34.053Z,487.00
2022-12-05T03:55:04.088Z,488.00
2022-12-05T03:55:34.163Z,488.00
2022-12-05T03:56:04.243Z,489.00
2022-12-05T03:56:34.323Z,490.00
2022-12-05T03:57:04.410Z,492.00
2022-12-05T03:57:34.493Z,490.00
2022-12-05T03:58:04.571Z,487.00
2022-12-05T03:58:34.673Z,487.00
2022-12-05T03:59:04.753Z,490.00
2022-12-05T03:59:34.834Z,490.00
2022-12-05T04:00:04.932Z,490.00
2022-12-05T04:00:35.009Z,491.00
2022-12-05T04:01:05.171Z,491.00
2022-12-05T04:01:35.205Z,492.00
2022-12-05T04:02:05.253Z,492.00
2022-12-05T04:02:35.261Z,490.00
2022-12-05T04:03:05.410Z,490.00
2022-12-05T04:03:35.481Z,490.00
2022-12-05T04:04:05.443Z,488.00
2022-12-05T04:04:35.523Z,488.00
2022-12-05T04:05:05.610Z,488.00
2022-12-05T04:05:35.700Z,487.00
2022-12-05T04:06:05.785Z,490.00
2022-12-05T04:06:35.900Z,489.00
2022-12-05T04:07:05.870Z,488.00
2022-12-05T04:07:36.029Z,491.00
2022-12-05T04:08:06.061Z,491.00
2022-12-05T04:08:36.069Z,490.00
2022-12-05T04:09:06.158Z,491.00
2022-12-05T04:09:36.244Z,493.00
2022-12-05T04:10:06.329Z,492.00
2022-12-05T04:10:36.410Z,492.00
2022-12-05T04:11:06.489Z,492.00
2022-12-05T04:11:36.574Z,493.00
2022-12-05T04:12:06.660Z,494.00
2022-12-05T04:12:36.739Z,496.00
2022-12-05T04:13:06.815Z,497.00
2022-12-05T04:13:36.931Z,497.00
2022-12-05T04:14:07.023Z,499.00
2022-12-05T04:14:37.094Z,498.00
2022-12-05T04:15:07.176Z,498.00
2022-12-05T04:15:37.308Z,498.00
2022-12-05T04:16:07.321Z,497.00
2022-12-05T04:16:37.344Z,495.00
2022-12-05T04:17:07.422Z,494.00
2022-12-05T04:17:37.501Z,494.00
2022-12-05T04:18:07.584Z,492.00
2022-12-05T04:18:37.681Z,489.00
2022-12-05T04:19:07.797Z,489.00
2022-12-05T04:19:37.850Z,488.00
2022-12-05T04:20:07.943Z,487.00
2022-12-05T04:20:38.036Z,489.00
2022-12-05T04:21:08.109Z,490.00
2022-12-05T04:21:38.213Z,490.00
2022-12-05T04:22:08.294Z,491.00
2022-12-05T04:22:38.394Z,493.00
2022-12-05T04:23:08.467Z,495.00
2022-12-05T04:23:40.568Z,494.00
2022-12-05T04:24:08.624Z,494.00
2022-12-05T04:24:38.702Z,493.00
2022-12-05T04:25:08.795Z,494.00
2022-12-05T04:25:38.866Z,493.00
2022-12-05T04:26:08.946Z,493.00
2022-12-05T04:26:39.055Z,495.00
2022-12-05T04:27:09.134Z,494.00
2022-12-05T04:27:39.214Z,494.00
2022-12-05T04:28:09.287Z,493.00
2022-12-05T04:28:39.377Z,494.00
2022-12-05T04:29:09.463Z,495.00
2022-12-05T04:29:39.549Z,494.00
2022-12-05T04:30:09.625Z,492.00
2022-12-05T04:30:39.836Z,491.00
2022-12-05T04:31:09.893Z,492.00
2022-12-05T04:31:39.889Z,490.00
2022-12-05T04:32:09.836Z,493.00
2022-12-05T04:32:39.923Z,494.00
2022-12-05T04:33:10.005Z,494.00
2022-12-05T04:33:40.097Z,493.00
2022-12-05T04:34:10.187Z,493.00
2022-12-05T04:34:40.298Z,493.00
2022-12-05T04:35:10.351Z,493.00
2022-12-05T04:35:40.437Z,492.00
2022-12-05T04:36:10.531Z,494.00
2022-12-05T04:36:40.616Z,493.00
2022-12-05T04:37:10.691Z,493.00
2022-12-05T04:37:40.772Z,492.00
2022-12-05T04:38:10.865Z,491.00
2022-12-05T04:38:40.953Z,490.00
2022-12-05T04:39:17.547Z,490.00
2022-12-05T04:39:41.098Z,491.00
2022-12-05T04:40:11.192Z,490.00
2022-12-05T04:40:41.276Z,490.00
2022-12-05T04:41:11.352Z,489.00
2022-12-05T04:41:41.435Z,490.00
2022-12-05T04:42:11.528Z,491.00
2022-12-05T04:42:41.612Z,491.00
2022-12-05T04:43:11.689Z,491.00
2022-12-05T04:43:41.784Z,492.00
2022-12-05T04:44:11.869Z,493.00
2022-12-05T04:44:41.956Z,493.00
2022-12-05T04:45:12.026Z,492.00
2022-12-05T04:45:42.066Z,494.00
2022-12-05T04:46:12.193Z,495.00
2022-12-05T04:46:42.309Z,494.00
2022-12-05T04:47:12.242Z,492.00
2022-12-05T04:47:42.252Z,491.00
2022-12-05T04:48:12.288Z,491.00
2022-12-05T04:48:42.345Z,490.00
2022-12-05T04:49:12.381Z,492.00
2022-12-05T04:49:42.420Z,493.00
2022-12-05T04:50:12.487Z,493.00
2022-12-05T04:50:42.500Z,493.00
2022-12-05T04:51:12.541Z,492.00
2022-12-05T04:51:42.582Z,491.00
2022-12-05T04:52:12.616Z,489.00
2022-12-05T04:52:42.665Z,490.00
2022-12-05T04:53:12.715Z,489.00
2022-12-05T04:53:42.766Z,489.00
2022-12-05T04:54:12.804Z,491.00
2022-12-05T04:54:42.841Z,491.00
2022-12-05T04:55:12.899Z,492.00
2022-12-05T04:55:42.986Z,492.00
2022-12-05T04:56:13.071Z,495.00
2022-12-05T04:56:43.148Z,495.00
2022-12-05T04:57:13.233Z,493.00
2022-12-05T04:57:43.318Z,495.00
2022-12-05T04:58:13.401Z,493.00
2022-12-05T04:58:43.483Z,493.00
2022-12-05T04:59:13.559Z,491.00
2022-12-05T04:59:43.649Z,491.00
2022-12-05T05:00:13.734Z,489.00
2022-12-05T05:00:43.809Z,488.00
2022-12-05T05:01:13.964Z,489.00
2022-12-05T05:01:44.041Z,489.00
2022-12-05T05:02:14.083Z,489.00
2022-12-05T05:02:44.101Z,489.00
2022-12-05T05:03:14.242Z,492.00
2022-12-05T05:03:44.230Z,495.00
2022-12-05T05:04:14.320Z,494.00
2022-12-05T05:04:44.403Z,494.00
2022-12-05T05:05:14.507Z,493.00
2022-12-05T05:05:44.594Z,493.00
2022-12-05T05:06:14.651Z,493.00
2022-12-05T05:06:44.739Z,494.00
2022-12-05T05:07:14.825Z,493.00
2022-12-05T05:07:45.059Z,494.00
2022-12-05T05:08:14.945Z,494.00
2022-12-05T05:08:44.913Z,493.00
2022-12-05T05:09:14.997Z,494.00
2022-12-05T05:09:45.078Z,494.00
2022-12-05T05:10:15.154Z,496.00
2022-12-05T05:10:45.235Z,498.00
2022-12-05T05:11:15.331Z,497.00
2022-12-05T05:11:45.415Z,497.00
2022-12-05T05:12:19.013Z,498.00
2022-12-05T05:12:45.564Z,499.00
2022-12-05T05:13:15.649Z,498.00
2022-12-05T05:13:45.749Z,498.00
2022-12-05T05:14:15.825Z,499.00
2022-12-05T05:14:45.903Z,498.00
2022-12-05T05:15:15.982Z,499.00
2022-12-05T05:15:46.135Z,498.00
2022-12-05T05:16:16.147Z,499.00
2022-12-05T05:16:46.104Z,499.00
2022-12-05T05:17:16.184Z,500.00
2022-12-05T05:17:46.265Z,500.00
2022-12-05T05:18:16.344Z,499.00
2022-12-05T05:18:46.424Z,500.00
2022-12-05T05:19:16.503Z,502.00
2022-12-05T05:19:46.590Z,502.00
2022-12-05T05:20:19.782Z,501.00
2022-12-05T05:20:46.782Z,503.00
2022-12-05T05:21:16.889Z,503.00
2022-12-05T05:21:46.943Z,501.00
2022-12-05T05:22:17.042Z,500.00
2022-12-05T05:22:47.139Z,505.00
2022-12-05T05:23:17.217Z,507.00
2022-12-05T05:23:47.298Z,507.00
2022-12-05T05:24:17.302Z,505.00
2022-12-05T05:24:47.391Z,506.00
2022-12-05T05:25:17.476Z,508.00
2022-12-05T05:25:47.553Z,509.00
2022-12-05T05:26:17.639Z,514.00
2022-12-05T05:26:51.207Z,515.00
2022-12-05T05:27:17.798Z,515.00
2022-12-05T05:27:47.879Z,514.00
2022-12-05T05:28:17.983Z,514.00
2022-12-05T05:28:48.081Z,515.00
2022-12-05T05:29:18.161Z,513.00
2022-12-05T05:29:48.242Z,514.00
2022-12-05T05:30:18.332Z,517.00
2022-12-05T05:30:48.528Z,522.00
2022-12-05T05:31:18.553Z,523.00
2022-12-05T05:31:48.532Z,522.00
2022-12-05T05:32:18.517Z,523.00
2022-12-05T05:32:48.613Z,522.00
2022-12-05T05:33:18.709Z,520.00
2022-12-05T05:33:48.798Z,521.00
2022-12-05T05:34:18.881Z,522.00
2022-12-05T05:34:48.968Z,524.00
2022-12-05T05:35:19.052Z,524.00
2022-12-05T05:35:49.137Z,525.00
2022-12-05T05:36:19.238Z,526.00
2022-12-05T05:36:49.333Z,527.00
2022-12-05T05:37:19.393Z,528.00
2022-12-05T05:37:49.476Z,528.00
2022-12-05T05:38:19.563Z,531.00
2022-12-05T05:38:49.645Z,531.00
2022-12-05T05:39:19.733Z,531.00
2022-12-05T05:39:49.815Z,533.00
2022-12-05T05:40:19.905Z,534.00
2022-12-05T05:40:49.994Z,535.00
2022-12-05T05:41:20.077Z,537.00
2022-12-05T05:41:50.176Z,539.00
2022-12-05T05:42:20.237Z,539.00
2022-12-05T05:42:50.315Z,538.00
2022-12-05T05:43:20.401Z,538.00
2022-12-05T05:43:50.497Z,540.00
2022-12-05T05:44:20.578Z,541.00
2022-12-05T05:44:50.686Z,541.00
2022-12-05T05:45:20.707Z,542.00
2022-12-05T05:45:50.760Z,542.00
2022-12-05T05:46:20.839Z,543.00
2022-12-05T05:46:50.896Z,543.00
2022-12-05T05:47:20.872Z,542.00
2022-12-05T05:47:50.924Z,541.00
2022-12-05T05:48:21.011Z,542.00
2022-12-05T05:48:51.091Z,545.00
2022-12-05T05:49:21.108Z,547.00
2022-12-05T05:49:51.151Z,547.00
2022-12-05T05:50:22.139Z,548.00
2022-12-05T05:50:51.292Z,550.00
2022-12-05T05:51:21.327Z,550.00
2022-12-05T05:51:51.363Z,551.00
2022-12-05T05:52:21.471Z,552.00
2022-12-05T05:52:51.493Z,554.00
2022-12-05T05:53:21.530Z,555.00
2022-12-05T05:53:51.565Z,555.00
2022-12-05T05:54:21.601Z,558.00
2022-12-05T05:54:51.659Z,556.00
2022-12-05T05:55:21.709Z,559.00
2022-12-05T05:55:51.791Z,559.00
2022-12-05T05:56:22.313Z,560.00
2022-12-05T05:56:51.876Z,557.00
2022-12-05T05:57:21.960Z,558.00
2022-12-05T05:57:52.054Z,559.00
2022-12-05T05:58:22.124Z,559.00
2022-12-05T05:58:52.203Z,559.00
2022-12-05T05:59:22.293Z,562.00
2022-12-05T05:59:52.376Z,563.00
2022-12-05T06:00:22.458Z,563.00
2022-12-05T06:00:52.532Z,565.00
2022-12-05T06:01:22.618Z,565.00
2022-12-05T06:01:52.704Z,566.00
2022-12-05T06:02:22.824Z,567.00
2022-12-05T06:02:52.979Z,568.00
2022-12-05T06:03:22.981Z,569.00
2022-12-05T06:03:53.079Z,568.00
2022-12-05T06:04:22.907Z,568.00
2022-12-05T06:04:52.979Z,569.00
2022-12-05T06:05:23.077Z,567.00
2022-12-05T06:05:53.260Z,569.00
2022-12-05T06:06:23.188Z,571.00
2022-12-05T06:06:53.289Z,572.00
2022-12-05T06:07:23.380Z,572.00
2022-12-05T06:07:53.618Z,575.00
2022-12-05T06:08:23.577Z,575.00
2022-12-05T06:08:53.529Z,578.00
2022-12-05T06:09:23.615Z,577.00
2022-12-05T06:09:53.694Z,577.00
2022-12-05T06:10:23.777Z,579.00
2022-12-05T06:10:53.862Z,581.00
2022-12-05T06:11:26.112Z,581.00
2022-12-05T06:11:54.033Z,581.00
2022-12-05T06:12:24.116Z,595.00
2022-12-05T06:12:54.205Z,602.00
2022-12-05T06:13:24.291Z,612.00
2022-12-05T06:13:54.373Z,640.00
2022-12-05T06:14:24.452Z,650.00
2022-12-05T06:14:54.530Z,656.00